Airfield :
LOGIN :

Register | Disclaimer

   EN    FR    IT 

 










Legend :    VFR   Marginal VFR   IFR   Intensive IFR   Very Intensive IFR
Visi :
Ceiling :
>= 8 km
>= 3000ft
5 to 8 km
1000 to 3000 ft
1500m to 5 km
500 to 1000 ft
800 to 1500m
200 to 500 ft
< 800m
< 200 ft
Symbols :   Thunderstorms  Fog  Heavy snow  Heavy precipitations  Wind > 20 kt
SIGMETs :     Misc.  Thunderstorms  Icing  Turbulence  Mountain Waves  Volcanic Ashes






- Airport Elevation : 1966 ft
- IATA code : SGE


EDGS - Siegerland

CURRENT METAR :
  • 161220Z 24014KT 200V270 9999 FEW011 SCT018 BKN024TCU 18/14 Q1014

EXPIRED METARs :
  • 161150Z 24011KT 8000 -SHRA SCT015 BKN032TCU 17/13 Q1014
  • 161120Z 23011KT 4400 // FEW015 SCT021 16/13 Q1014 -SHRA
  • 161050Z 22012KT 190V250 9999 SCT022 BKN043 18/12 Q1014
  • 160950Z 22014KT 9999 SCT026 BKN042 18/11 Q1014
  • 160920Z 22012G23KT 190V250 9999 SCT020 BKN036 18/12 Q1014
  • 160850Z 22013KT 190V250 9999 SCT016 BKN023 18/12 Q1013
  • 160820Z 22010KT 170V250 9999 BKN015 BKN043 17/13 Q1013
  • 160750Z 23011KT 9999 FEW011 SCT016 BKN040 18/14 Q1013
  • 160720Z 22011KT 190V250 9999 FEW008 SCT015 BKN020 17/14 Q1013

TAF TAF EDGS
Valid from the 16 at 12:00 until the 16 at 21:00 UTC


161100Z 1612/1621 23012KT 9999 SCT025
TEMPO 1612/1617 24015G25KT SHRA BKN020CB
PROB30
TEMPO 1612/1616 4000 TSRA
BECMG 1618/1620 23007KT



MET'MAP, your aeronautical weather chart ! - Copyright ORBIFLY December 2007 - Disclaimer

ORBIFLY MET'MAP TEAM :

Programming & Development : Alexandra Zaïnal
Original concept : Baudouin d'Aumeries
Technical & hardware support : Manuel Goepfert
Assistance : Marc-Olivier Méhu




SOURCES & CREDITS :

   NOAA